Pagrindinis puslapis
METAR-TAF:

METAR-TAF

Oro uostai :

Trevizas, Italija

platuma: 45-39N, ilguma: 012-11E, Aukštis: 18 m

Dabartinis oras

Ataskaita buvo paskelbta 24 minutes, ne 06:50 UTC
Vėjas 6 kt iš Šiaurės Rytų, svyruoja nuo Šiaurės ir Rytų/Šiaurės Rytų
Temperatūra 21°C
Drėgmė 88%
Slėgis 1007 hPa
Matomumas 10 km arba daugiau
Mažai debesys ne aukštis 1000 ft
Su prošvaistėmis ne aukštis 6000 ft

METAR: LIPH 070650Z 04006KT 360V060 9999 FEW010 BKN060 21/19 Q1007

Laikas: 09:14 (07:14 UTC)

Prognozė

Ataskaita buvo paskelbta 2 valandos ir 14 minutes, ne 05:00 UTC
Prognozė galioja nuo 07 metu 06 UTC su 08 metu 06 UTC
Vėjas 5 kt nuo kintamojo kryptimis
Matomumas 10 km arba daugiau
Su prošvaistėmis ne aukštis 3000 ft
Laikinai
nuo 07 metu 10 UTC su 07 metu 14 UTC
Matomumas: 4000 m
lietus
Laikinai
nuo 07 metu 14 UTC su 07 metu 22 UTC
Matomumas: 3000 m
perkūnija, lietus
Laikinai
nuo 07 metu 22 UTC su 08 metu 06 UTC
Matomumas: 4000 m
lietus

TAF: LIPH 070500Z 0706/0806 VRB05KT 9999 BKN030 TEMPO 0710/0714 4000 RA TEMPO 0714/0722 3000 TSRA TEMPO 0722/0806 4000 SHRA

Orai ataskaitas ir orų prognozės (METAR, TAF).

turimą stotys yra geltonos ir raudonos taškus žemėlapyje.

Perkelti pele per norėdami pamatyti stoties vardą.

Tada spustelėkite, norėdami matyti oro stebėjimo ir prognozės.

Norėdami pakeisti žemėlapį: spustelėkite ant žalios mygtukų su juodo kryžiaus žemyn,; žalią mygtuką su brūkšneliu, jei norite nutolinti; arba žalių rodyklių gretimoms žemėlapius.


METAR-TAF: